sensor_id;sensor_type;location;lat;lon;timestamp;P1;durP1;ratioP1;P2;durP2;ratioP2
19985;SDS011;10154;52.474;10.768;2022-09-09T00:04:37;7.87;;;5.20;;
19985;SDS011;10154;52.474;10.768;2022-09-09T00:12:49;6.60;;;4.83;;
19985;SDS011;10154;52.474;10.768;2022-09-09T00:18:39;8.07;;;5.00;;
19985;SDS011;10154;52.474;10.768;2022-09-09T00:21:38;5.27;;;4.27;;
19985;SDS011;10154;52.474;10.768;2022-09-09T00:24:27;9.73;;;4.63;;
19985;SDS011;10154;52.474;10.768;2022-09-09T00:30:15;9.20;;;4.73;;
19985;SDS011;10154;52.474;10.768;2022-09-09T00:33:00;4.63;;;4.13;;
19985;SDS011;10154;52.474;10.768;2022-09-09T00:35:37;5.00;;;4.03;;
19985;SDS011;10154;52.474;10.768;2022-09-09T00:38:19;6.10;;;4.20;;
19985;SDS011;10154;52.474;10.768;2022-09-09T00:40:58;4.83;;;4.20;;
19985;SDS011;10154;52.474;10.768;2022-09-09T00:43:36;4.87;;;3.77;;
19985;SDS011;10154;52.474;10.768;2022-09-09T00:49:22;5.47;;;3.60;;
19985;SDS011;10154;52.474;10.768;2022-09-09T00:57:45;6.43;;;3.53;;
19985;SDS011;10154;52.474;10.768;2022-09-09T01:05:54;8.50;;;3.80;;
19985;SDS011;10154;52.474;10.768;2022-09-09T01:11:25;6.03;;;3.50;;
19985;SDS011;10154;52.474;10.768;2022-09-09T01:14:19;4.07;;;3.03;;
19985;SDS011;10154;52.474;10.768;2022-09-09T01:16:59;3.60;;;3.13;;
19985;SDS011;10154;52.474;10.768;2022-09-09T01:26:12;5.67;;;2.90;;
19985;SDS011;10154;52.474;10.768;2022-09-09T01:29:00;5.27;;;3.13;;
19985;SDS011;10154;52.474;10.768;2022-09-09T01:31:31;4.37;;;2.97;;
19985;SDS011;10154;52.474;10.768;2022-09-09T01:34:01;5.03;;;3.00;;
19985;SDS011;10154;52.474;10.768;2022-09-09T01:36:35;4.83;;;3.00;;
19985;SDS011;10154;52.474;10.768;2022-09-09T01:39:27;7.07;;;2.83;;
19985;SDS011;10154;52.474;10.768;2022-09-09T01:41:54;9.67;;;3.00;;
19985;SDS011;10154;52.474;10.768;2022-09-09T01:44:21;4.23;;;2.80;;
19985;SDS011;10154;52.474;10.768;2022-09-09T01:46:48;3.80;;;2.77;;
19985;SDS011;10154;52.474;10.768;2022-09-09T01:49:14;3.73;;;2.87;;
19985;SDS011;10154;52.474;10.768;2022-09-09T01:51:42;3.27;;;2.90;;
19985;SDS011;10154;52.474;10.768;2022-09-09T01:54:11;7.97;;;3.20;;
19985;SDS011;10154;52.474;10.768;2022-09-09T02:08:00;3.60;;;2.80;;
19985;SDS011;10154;52.474;10.768;2022-09-09T02:10:44;6.77;;;2.90;;
19985;SDS011;10154;52.474;10.768;2022-09-09T02:13:24;4.27;;;2.97;;
19985;SDS011;10154;52.474;10.768;2022-09-09T02:18:39;3.00;;;2.70;;
19985;SDS011;10154;52.474;10.768;2022-09-09T02:21:11;3.67;;;2.70;;
19985;SDS011;10154;52.474;10.768;2022-09-09T02:23:40;5.43;;;3.10;;
19985;SDS011;10154;52.474;10.768;2022-09-09T02:26:11;5.60;;;3.00;;
19985;SDS011;10154;52.474;10.768;2022-09-09T02:28:44;4.73;;;2.80;;
19985;SDS011;10154;52.474;10.768;2022-09-09T02:31:16;4.47;;;3.17;;
19985;SDS011;10154;52.474;10.768;2022-09-09T02:33:46;4.27;;;3.00;;
19985;SDS011;10154;52.474;10.768;2022-09-09T02:36:18;6.40;;;3.27;;
19985;SDS011;10154;52.474;10.768;2022-09-09T02:38:47;3.67;;;2.97;;
19985;SDS011;10154;52.474;10.768;2022-09-09T02:41:15;7.33;;;2.60;;
19985;SDS011;10154;52.474;10.768;2022-09-09T02:43:45;4.93;;;2.90;;
19985;SDS011;10154;52.474;10.768;2022-09-09T02:46:26;5.07;;;2.60;;
19985;SDS011;10154;52.474;10.768;2022-09-09T02:49:10;4.07;;;2.77;;
19985;SDS011;10154;52.474;10.768;2022-09-09T02:51:53;5.03;;;3.13;;
19985;SDS011;10154;52.474;10.768;2022-09-09T02:54:41;3.00;;;2.70;;
19985;SDS011;10154;52.474;10.768;2022-09-09T02:57:12;5.53;;;2.93;;
19985;SDS011;10154;52.474;10.768;2022-09-09T02:59:52;2.70;;;2.50;;
19985;SDS011;10154;52.474;10.768;2022-09-09T03:02:21;7.17;;;2.80;;
19985;SDS011;10154;52.474;10.768;2022-09-09T03:04:48;4.80;;;2.60;;
19985;SDS011;10154;52.474;10.768;2022-09-09T03:07:19;7.73;;;2.80;;
19985;SDS011;10154;52.474;10.768;2022-09-09T03:09:46;6.00;;;2.80;;
19985;SDS011;10154;52.474;10.768;2022-09-09T03:12:12;6.80;;;2.80;;
19985;SDS011;10154;52.474;10.768;2022-09-09T03:14:38;10.40;;;2.70;;
19985;SDS011;10154;52.474;10.768;2022-09-09T03:17:05;6.87;;;3.47;;
19985;SDS011;10154;52.474;10.768;2022-09-09T03:19:31;3.83;;;2.90;;
19985;SDS011;10154;52.474;10.768;2022-09-09T03:21:57;3.93;;;2.60;;
19985;SDS011;10154;52.474;10.768;2022-09-09T03:24:25;3.00;;;2.53;;
19985;SDS011;10154;52.474;10.768;2022-09-09T03:26:51;6.10;;;2.67;;
19985;SDS011;10154;52.474;10.768;2022-09-09T03:29:17;5.63;;;2.60;;
19985;SDS011;10154;52.474;10.768;2022-09-09T03:31:44;2.83;;;2.40;;
19985;SDS011;10154;52.474;10.768;2022-09-09T03:34:10;3.87;;;2.60;;
19985;SDS011;10154;52.474;10.768;2022-09-09T03:36:36;6.60;;;2.70;;
19985;SDS011;10154;52.474;10.768;2022-09-09T03:39:02;4.73;;;2.60;;
19985;SDS011;10154;52.474;10.768;2022-09-09T03:41:29;3.53;;;2.50;;
19985;SDS011;10154;52.474;10.768;2022-09-09T03:43:56;4.37;;;2.77;;
19985;SDS011;10154;52.474;10.768;2022-09-09T03:46:25;5.97;;;2.73;;
19985;SDS011;10154;52.474;10.768;2022-09-09T03:48:52;2.97;;;2.70;;
19985;SDS011;10154;52.474;10.768;2022-09-09T03:51:18;3.87;;;2.77;;
19985;SDS011;10154;52.474;10.768;2022-09-09T03:53:46;7.57;;;2.90;;
19985;SDS011;10154;52.474;10.768;2022-09-09T03:56:12;3.00;;;2.70;;
19985;SDS011;10154;52.474;10.768;2022-09-09T03:58:39;4.57;;;2.60;;
19985;SDS011;10154;52.474;10.768;2022-09-09T04:01:07;5.13;;;2.70;;
19985;SDS011;10154;52.474;10.768;2022-09-09T04:03:42;3.43;;;3.10;;
19985;SDS011;10154;52.474;10.768;2022-09-09T04:06:12;4.40;;;2.97;;
19985;SDS011;10154;52.474;10.768;2022-09-09T04:08:40;3.60;;;2.60;;
19985;SDS011;10154;52.474;10.768;2022-09-09T04:11:06;5.67;;;3.10;;
19985;SDS011;10154;52.474;10.768;2022-09-09T04:13:35;5.80;;;2.80;;
19985;SDS011;10154;52.474;10.768;2022-09-09T04:16:04;5.47;;;3.00;;
19985;SDS011;10154;52.474;10.768;2022-09-09T04:18:31;4.33;;;2.80;;
19985;SDS011;10154;52.474;10.768;2022-09-09T04:20:57;5.77;;;2.90;;
19985;SDS011;10154;52.474;10.768;2022-09-09T04:23:26;7.87;;;2.90;;
19985;SDS011;10154;52.474;10.768;2022-09-09T04:25:56;5.00;;;2.90;;
19985;SDS011;10154;52.474;10.768;2022-09-09T04:28:25;4.97;;;2.80;;
19985;SDS011;10154;52.474;10.768;2022-09-09T04:30:56;5.50;;;2.90;;
19985;SDS011;10154;52.474;10.768;2022-09-09T04:33:29;5.10;;;2.60;;
19985;SDS011;10154;52.474;10.768;2022-09-09T04:35:56;6.30;;;2.60;;
19985;SDS011;10154;52.474;10.768;2022-09-09T04:38:22;6.80;;;3.23;;
19985;SDS011;10154;52.474;10.768;2022-09-09T04:40:50;4.93;;;2.67;;
19985;SDS011;10154;52.474;10.768;2022-09-09T04:43:17;5.00;;;2.53;;
19985;SDS011;10154;52.474;10.768;2022-09-09T04:45:44;7.43;;;3.03;;
19985;SDS011;10154;52.474;10.768;2022-09-09T04:48:13;4.67;;;2.93;;
19985;SDS011;10154;52.474;10.768;2022-09-09T04:50:40;5.40;;;2.73;;
19985;SDS011;10154;52.474;10.768;2022-09-09T04:53:06;4.53;;;2.73;;
19985;SDS011;10154;52.474;10.768;2022-09-09T04:55:33;6.80;;;2.90;;
19985;SDS011;10154;52.474;10.768;2022-09-09T04:58:07;3.97;;;2.70;;
19985;SDS011;10154;52.474;10.768;2022-09-09T05:00:34;7.67;;;2.87;;
19985;SDS011;10154;52.474;10.768;2022-09-09T05:03:06;7.77;;;2.87;;
19985;SDS011;10154;52.474;10.768;2022-09-09T05:05:34;8.27;;;2.70;;
19985;SDS011;10154;52.474;10.768;2022-09-09T05:08:01;6.07;;;2.87;;
19985;SDS011;10154;52.474;10.768;2022-09-09T05:10:29;5.83;;;2.90;;
19985;SDS011;10154;52.474;10.768;2022-09-09T05:12:56;5.67;;;2.80;;
19985;SDS011;10154;52.474;10.768;2022-09-09T05:15:24;6.50;;;2.80;;
19985;SDS011;10154;52.474;10.768;2022-09-09T05:17:50;6.17;;;2.50;;
19985;SDS011;10154;52.474;10.768;2022-09-09T05:20:18;7.83;;;2.70;;
19985;SDS011;10154;52.474;10.768;2022-09-09T05:22:44;5.13;;;2.70;;
19985;SDS011;10154;52.474;10.768;2022-09-09T05:25:10;8.23;;;2.80;;
19985;SDS011;10154;52.474;10.768;2022-09-09T05:27:36;5.10;;;2.53;;
19985;SDS011;10154;52.474;10.768;2022-09-09T05:30:02;4.67;;;2.80;;
19985;SDS011;10154;52.474;10.768;2022-09-09T05:32:29;5.77;;;3.10;;
19985;SDS011;10154;52.474;10.768;2022-09-09T05:34:59;6.90;;;3.27;;
19985;SDS011;10154;52.474;10.768;2022-09-09T05:37:25;8.17;;;3.23;;
19985;SDS011;10154;52.474;10.768;2022-09-09T05:39:52;6.90;;;3.00;;
19985;SDS011;10154;52.474;10.768;2022-09-09T05:42:18;9.00;;;3.10;;
19985;SDS011;10154;52.474;10.768;2022-09-09T05:44:44;5.30;;;3.17;;
19985;SDS011;10154;52.474;10.768;2022-09-09T05:47:10;4.10;;;3.33;;
19985;SDS011;10154;52.474;10.768;2022-09-09T05:49:36;6.13;;;3.13;;
19985;SDS011;10154;52.474;10.768;2022-09-09T05:52:02;7.93;;;3.47;;
19985;SDS011;10154;52.474;10.768;2022-09-09T05:54:29;4.20;;;3.27;;
19985;SDS011;10154;52.474;10.768;2022-09-09T05:56:55;7.00;;;3.10;;
19985;SDS011;10154;52.474;10.768;2022-09-09T05:59:22;5.77;;;3.13;;
19985;SDS011;10154;52.474;10.768;2022-09-09T06:01:48;5.07;;;3.40;;
19985;SDS011;10154;52.474;10.768;2022-09-09T06:04:14;7.27;;;3.33;;
19985;SDS011;10154;52.474;10.768;2022-09-09T06:06:41;8.77;;;3.30;;
19985;SDS011;10154;52.474;10.768;2022-09-09T06:09:08;7.37;;;3.50;;
19985;SDS011;10154;52.474;10.768;2022-09-09T06:11:36;9.93;;;3.57;;
19985;SDS011;10154;52.474;10.768;2022-09-09T06:14:04;6.87;;;3.07;;
19985;SDS011;10154;52.474;10.768;2022-09-09T06:16:31;6.03;;;2.97;;
19985;SDS011;10154;52.474;10.768;2022-09-09T06:18:59;5.70;;;2.90;;
19985;SDS011;10154;52.474;10.768;2022-09-09T06:21:35;6.00;;;3.50;;
19985;SDS011;10154;52.474;10.768;2022-09-09T06:24:02;7.40;;;3.20;;
19985;SDS011;10154;52.474;10.768;2022-09-09T06:26:30;8.83;;;2.93;;
19985;SDS011;10154;52.474;10.768;2022-09-09T06:28:58;6.17;;;3.10;;
19985;SDS011;10154;52.474;10.768;2022-09-09T06:31:28;7.33;;;3.20;;
19985;SDS011;10154;52.474;10.768;2022-09-09T06:33:55;8.13;;;3.30;;
19985;SDS011;10154;52.474;10.768;2022-09-09T06:36:27;6.80;;;3.03;;
19985;SDS011;10154;52.474;10.768;2022-09-09T06:38:56;7.83;;;3.30;;
19985;SDS011;10154;52.474;10.768;2022-09-09T06:41:23;13.87;;;3.23;;
19985;SDS011;10154;52.474;10.768;2022-09-09T06:43:52;4.17;;;3.00;;
19985;SDS011;10154;52.474;10.768;2022-09-09T06:46:21;7.10;;;2.93;;
19985;SDS011;10154;52.474;10.768;2022-09-09T06:48:53;7.70;;;2.83;;
19985;SDS011;10154;52.474;10.768;2022-09-09T06:51:22;5.17;;;2.60;;
19985;SDS011;10154;52.474;10.768;2022-09-09T06:53:51;4.77;;;2.77;;
19985;SDS011;10154;52.474;10.768;2022-09-09T06:56:23;4.27;;;2.50;;
19985;SDS011;10154;52.474;10.768;2022-09-09T06:58:58;5.07;;;2.57;;
19985;SDS011;10154;52.474;10.768;2022-09-09T07:01:30;4.67;;;2.60;;
19985;SDS011;10154;52.474;10.768;2022-09-09T07:03:58;7.67;;;2.70;;
19985;SDS011;10154;52.474;10.768;2022-09-09T07:06:30;3.80;;;2.50;;
19985;SDS011;10154;52.474;10.768;2022-09-09T07:09:09;7.17;;;2.90;;
19985;SDS011;10154;52.474;10.768;2022-09-09T07:11:39;6.27;;;2.60;;
19985;SDS011;10154;52.474;10.768;2022-09-09T07:14:08;6.23;;;2.50;;
19985;SDS011;10154;52.474;10.768;2022-09-09T07:16:37;7.07;;;2.70;;
19985;SDS011;10154;52.474;10.768;2022-09-09T07:19:04;5.53;;;3.00;;
19985;SDS011;10154;52.474;10.768;2022-09-09T07:21:31;8.93;;;3.03;;
19985;SDS011;10154;52.474;10.768;2022-09-09T07:23:58;6.70;;;3.00;;
19985;SDS011;10154;52.474;10.768;2022-09-09T07:26:26;4.70;;;3.07;;
19985;SDS011;10154;52.474;10.768;2022-09-09T07:28:54;5.27;;;3.07;;
19985;SDS011;10154;52.474;10.768;2022-09-09T07:31:23;5.17;;;2.63;;
19985;SDS011;10154;52.474;10.768;2022-09-09T07:33:52;7.20;;;2.77;;
19985;SDS011;10154;52.474;10.768;2022-09-09T07:36:20;6.73;;;2.90;;
19985;SDS011;10154;52.474;10.768;2022-09-09T07:38:53;5.87;;;2.67;;
19985;SDS011;10154;52.474;10.768;2022-09-09T07:41:26;4.93;;;2.57;;
19985;SDS011;10154;52.474;10.768;2022-09-09T07:43:57;6.38;;;2.65;;
19985;SDS011;10154;52.474;10.768;2022-09-09T07:46:25;8.13;;;2.80;;
19985;SDS011;10154;52.474;10.768;2022-09-09T07:48:53;3.60;;;2.30;;
19985;SDS011;10154;52.474;10.768;2022-09-09T07:51:27;5.70;;;2.30;;
19985;SDS011;10154;52.474;10.768;2022-09-09T07:53:58;6.57;;;2.20;;
19985;SDS011;10154;52.474;10.768;2022-09-09T07:56:28;5.03;;;2.20;;
19985;SDS011;10154;52.474;10.768;2022-09-09T07:58:55;6.20;;;2.17;;
19985;SDS011;10154;52.474;10.768;2022-09-09T08:01:27;6.43;;;2.13;;
19985;SDS011;10154;52.474;10.768;2022-09-09T08:04:06;6.10;;;1.97;;
19985;SDS011;10154;52.474;10.768;2022-09-09T08:06:41;6.73;;;1.70;;
19985;SDS011;10154;52.474;10.768;2022-09-09T08:09:18;6.47;;;1.97;;
19985;SDS011;10154;52.474;10.768;2022-09-09T08:11:45;6.80;;;1.98;;
19985;SDS011;10154;52.474;10.768;2022-09-09T08:14:12;8.80;;;2.00;;
19985;SDS011;10154;52.474;10.768;2022-09-09T08:16:43;4.55;;;1.80;;
19985;SDS011;10154;52.474;10.768;2022-09-09T08:19:15;4.80;;;1.77;;
19985;SDS011;10154;52.474;10.768;2022-09-09T08:21:42;6.00;;;1.77;;
19985;SDS011;10154;52.474;10.768;2022-09-09T08:24:10;5.20;;;1.60;;
19985;SDS011;10154;52.474;10.768;2022-09-09T08:26:38;4.73;;;1.80;;
19985;SDS011;10154;52.474;10.768;2022-09-09T08:29:08;9.47;;;1.90;;
19985;SDS011;10154;52.474;10.768;2022-09-09T08:31:36;4.97;;;1.80;;
19985;SDS011;10154;52.474;10.768;2022-09-09T08:34:08;6.07;;;1.95;;
19985;SDS011;10154;52.474;10.768;2022-09-09T08:36:37;11.18;;;2.42;;
19985;SDS011;10154;52.474;10.768;2022-09-09T08:39:07;5.80;;;1.90;;
19985;SDS011;10154;52.474;10.768;2022-09-09T08:41:44;6.70;;;1.80;;
19985;SDS011;10154;52.474;10.768;2022-09-09T08:55:38;7.47;;;1.63;;
19985;SDS011;10154;52.474;10.768;2022-09-09T08:58:22;7.38;;;1.75;;
19985;SDS011;10154;52.474;10.768;2022-09-09T09:12:37;5.20;;;1.45;;
19985;SDS011;10154;52.474;10.768;2022-09-09T09:15:11;6.18;;;1.70;;
19985;SDS011;10154;52.474;10.768;2022-09-09T09:17:45;7.88;;;1.80;;
19985;SDS011;10154;52.474;10.768;2022-09-09T09:20:14;4.45;;;1.30;;
19985;SDS011;10154;52.474;10.768;2022-09-09T09:22:49;3.03;;;1.42;;
19985;SDS011;10154;52.474;10.768;2022-09-09T09:36:14;6.00;;;1.40;;
19985;SDS011;10154;52.474;10.768;2022-09-09T09:38:57;4.35;;;1.30;;
19985;SDS011;10154;52.474;10.768;2022-09-09T09:41:58;4.18;;;1.50;;
19985;SDS011;10154;52.474;10.768;2022-09-09T09:44:26;6.45;;;1.48;;
19985;SDS011;10154;52.474;10.768;2022-09-09T09:47:16;4.53;;;1.40;;
19985;SDS011;10154;52.474;10.768;2022-09-09T09:50:19;2.85;;;1.23;;
19985;SDS011;10154;52.474;10.768;2022-09-09T09:52:53;4.35;;;1.20;;
19985;SDS011;10154;52.474;10.768;2022-09-09T09:55:28;6.05;;;1.42;;
19985;SDS011;10154;52.474;10.768;2022-09-09T09:58:05;6.45;;;1.40;;
19985;SDS011;10154;52.474;10.768;2022-09-09T10:00:46;6.80;;;1.20;;
19985;SDS011;10154;52.474;10.768;2022-09-09T10:03:35;3.30;;;1.13;;
19985;SDS011;10154;52.474;10.768;2022-09-09T10:06:04;3.25;;;1.00;;
19985;SDS011;10154;52.474;10.768;2022-09-09T10:08:33;4.13;;;1.10;;
19985;SDS011;10154;52.474;10.768;2022-09-09T10:11:29;2.78;;;1.20;;
19985;SDS011;10154;52.474;10.768;2022-09-09T10:14:15;5.00;;;1.20;;
19985;SDS011;10154;52.474;10.768;2022-09-09T10:19:40;3.65;;;1.13;;
19985;SDS011;10154;52.474;10.768;2022-09-09T10:22:33;3.42;;;1.30;;
19985;SDS011;10154;52.474;10.768;2022-09-09T10:33:49;4.65;;;1.42;;
19985;SDS011;10154;52.474;10.768;2022-09-09T10:36:23;7.43;;;1.55;;
19985;SDS011;10154;52.474;10.768;2022-09-09T10:39:04;4.18;;;1.50;;
19985;SDS011;10154;52.474;10.768;2022-09-09T10:55:48;5.35;;;1.45;;
19985;SDS011;10154;52.474;10.768;2022-09-09T11:02:21;4.63;;;1.30;;
19985;SDS011;10154;52.474;10.768;2022-09-09T11:04:52;3.90;;;1.10;;
19985;SDS011;10154;52.474;10.768;2022-09-09T11:10:57;3.70;;;1.30;;
19985;SDS011;10154;52.474;10.768;2022-09-09T11:13:57;5.90;;;1.38;;
19985;SDS011;10154;52.474;10.768;2022-09-09T11:16:49;2.70;;;1.30;;
19985;SDS011;10154;52.474;10.768;2022-09-09T11:22:27;5.95;;;1.63;;
19985;SDS011;10154;52.474;10.768;2022-09-09T11:25:15;3.60;;;1.50;;
19985;SDS011;10154;52.474;10.768;2022-09-09T11:40:06;3.70;;;1.20;;
19985;SDS011;10154;52.474;10.768;2022-09-09T11:42:44;4.68;;;1.38;;
19985;SDS011;10154;52.474;10.768;2022-09-09T11:45:24;6.80;;;1.30;;
19985;SDS011;10154;52.474;10.768;2022-09-09T11:47:57;4.28;;;1.27;;
19985;SDS011;10154;52.474;10.768;2022-09-09T11:52:51;3.63;;;1.23;;
19985;SDS011;10154;52.474;10.768;2022-09-09T11:55:40;4.05;;;1.33;;
19985;SDS011;10154;52.474;10.768;2022-09-09T11:58:15;7.05;;;1.33;;
19985;SDS011;10154;52.474;10.768;2022-09-09T12:00:46;5.47;;;1.40;;
19985;SDS011;10154;52.474;10.768;2022-09-09T12:09:06;4.50;;;1.40;;
19985;SDS011;10154;52.474;10.768;2022-09-09T12:11:48;5.90;;;1.40;;
19985;SDS011;10154;52.474;10.768;2022-09-09T12:14:22;4.38;;;1.30;;
19985;SDS011;10154;52.474;10.768;2022-09-09T12:17:42;1.88;;;1.00;;
19985;SDS011;10154;52.474;10.768;2022-09-09T12:25:47;15.30;;;3.47;;
19985;SDS011;10154;52.474;10.768;2022-09-09T12:34:17;7.97;;;2.30;;
19985;SDS011;10154;52.474;10.768;2022-09-09T12:36:51;7.72;;;2.70;;
19985;SDS011;10154;52.474;10.768;2022-09-09T12:39:29;11.52;;;2.85;;
19985;SDS011;10154;52.474;10.768;2022-09-09T12:42:01;6.90;;;2.80;;
19985;SDS011;10154;52.474;10.768;2022-09-09T12:44:29;8.05;;;2.70;;
19985;SDS011;10154;52.474;10.768;2022-09-09T12:46:58;9.27;;;2.30;;
19985;SDS011;10154;52.474;10.768;2022-09-09T12:49:29;7.53;;;2.60;;
19985;SDS011;10154;52.474;10.768;2022-09-09T12:52:25;8.65;;;2.50;;
19985;SDS011;10154;52.474;10.768;2022-09-09T12:55:14;7.93;;;2.65;;
19985;SDS011;10154;52.474;10.768;2022-09-09T12:57:59;3.20;;;2.50;;
19985;SDS011;10154;52.474;10.768;2022-09-09T13:18:51;2.97;;;2.20;;
19985;SDS011;10154;52.474;10.768;2022-09-09T13:21:18;2.40;;;2.20;;
19985;SDS011;10154;52.474;10.768;2022-09-09T13:23:48;3.63;;;2.40;;
19985;SDS011;10154;52.474;10.768;2022-09-09T13:26:21;2.90;;;2.00;;
19985;SDS011;10154;52.474;10.768;2022-09-09T13:28:53;4.55;;;2.72;;
19985;SDS011;10154;52.474;10.768;2022-09-09T13:31:24;4.25;;;2.28;;
19985;SDS011;10154;52.474;10.768;2022-09-09T13:34:11;5.60;;;2.78;;
19985;SDS011;10154;52.474;10.768;2022-09-09T13:37:03;5.28;;;3.00;;
19985;SDS011;10154;52.474;10.768;2022-09-09T13:39:50;5.45;;;2.70;;
19985;SDS011;10154;52.474;10.768;2022-09-09T13:42:25;6.05;;;2.80;;
19985;SDS011;10154;52.474;10.768;2022-09-09T13:44:55;6.05;;;2.70;;
19985;SDS011;10154;52.474;10.768;2022-09-09T13:47:27;3.65;;;2.70;;
19985;SDS011;10154;52.474;10.768;2022-09-09T13:49:57;3.83;;;3.13;;
19985;SDS011;10154;52.474;10.768;2022-09-09T13:52:23;7.25;;;3.60;;
19985;SDS011;10154;52.474;10.768;2022-09-09T13:54:51;4.90;;;2.90;;
19985;SDS011;10154;52.474;10.768;2022-09-09T13:57:20;4.07;;;3.10;;
19985;SDS011;10154;52.474;10.768;2022-09-09T13:59:50;6.03;;;3.53;;
19985;SDS011;10154;52.474;10.768;2022-09-09T14:02:19;4.00;;;3.40;;
19985;SDS011;10154;52.474;10.768;2022-09-09T14:04:48;4.40;;;3.17;;
19985;SDS011;10154;52.474;10.768;2022-09-09T14:07:16;3.33;;;2.90;;
19985;SDS011;10154;52.474;10.768;2022-09-09T14:09:44;2.95;;;2.75;;
19985;SDS011;10154;52.474;10.768;2022-09-09T14:12:14;5.20;;;2.95;;
19985;SDS011;10154;52.474;10.768;2022-09-09T14:14:42;3.20;;;2.83;;
19985;SDS011;10154;52.474;10.768;2022-09-09T14:17:08;2.80;;;2.60;;
19985;SDS011;10154;52.474;10.768;2022-09-09T14:19:36;3.38;;;2.85;;
19985;SDS011;10154;52.474;10.768;2022-09-09T14:22:02;2.80;;;2.60;;
19985;SDS011;10154;52.474;10.768;2022-09-09T14:24:28;6.13;;;2.80;;
19985;SDS011;10154;52.474;10.768;2022-09-09T14:26:55;2.88;;;2.58;;
19985;SDS011;10154;52.474;10.768;2022-09-09T14:29:21;2.60;;;2.40;;
19985;SDS011;10154;52.474;10.768;2022-09-09T14:31:47;3.83;;;2.30;;
19985;SDS011;10154;52.474;10.768;2022-09-09T14:34:13;2.55;;;2.35;;
19985;SDS011;10154;52.474;10.768;2022-09-09T14:36:39;2.40;;;2.20;;
19985;SDS011;10154;52.474;10.768;2022-09-09T14:39:06;2.90;;;2.10;;
19985;SDS011;10154;52.474;10.768;2022-09-09T14:41:33;2.83;;;2.25;;
19985;SDS011;10154;52.474;10.768;2022-09-09T14:43:59;3.17;;;2.30;;
19985;SDS011;10154;52.474;10.768;2022-09-09T14:46:26;4.53;;;2.10;;
19985;SDS011;10154;52.474;10.768;2022-09-09T14:48:52;6.45;;;2.20;;
19985;SDS011;10154;52.474;10.768;2022-09-09T14:51:21;3.35;;;2.00;;
19985;SDS011;10154;52.474;10.768;2022-09-09T14:54:00;6.13;;;1.80;;
19985;SDS011;10154;52.474;10.768;2022-09-09T14:56:28;3.50;;;1.60;;
19985;SDS011;10154;52.474;10.768;2022-09-09T14:58:57;5.35;;;1.98;;
19985;SDS011;10154;52.474;10.768;2022-09-09T15:01:27;3.50;;;1.70;;
19985;SDS011;10154;52.474;10.768;2022-09-09T15:03:58;3.38;;;1.60;;
19985;SDS011;10154;52.474;10.768;2022-09-09T15:06:27;5.57;;;1.70;;
19985;SDS011;10154;52.474;10.768;2022-09-09T15:08:56;1.67;;;1.30;;
19985;SDS011;10154;52.474;10.768;2022-09-09T15:11:23;3.15;;;1.48;;
19985;SDS011;10154;52.474;10.768;2022-09-09T15:13:53;3.83;;;1.52;;
19985;SDS011;10154;52.474;10.768;2022-09-09T15:16:20;4.32;;;1.50;;
19985;SDS011;10154;52.474;10.768;2022-09-09T15:18:52;2.83;;;1.50;;
19985;SDS011;10154;52.474;10.768;2022-09-09T15:21:22;4.05;;;1.40;;
19985;SDS011;10154;52.474;10.768;2022-09-09T15:23:50;4.15;;;1.48;;
19985;SDS011;10154;52.474;10.768;2022-09-09T15:26:17;3.85;;;1.40;;
19985;SDS011;10154;52.474;10.768;2022-09-09T15:28:44;4.18;;;1.40;;
19985;SDS011;10154;52.474;10.768;2022-09-09T15:31:16;3.75;;;1.45;;
19985;SDS011;10154;52.474;10.768;2022-09-09T15:33:51;1.70;;;1.20;;
19985;SDS011;10154;52.474;10.768;2022-09-09T15:36:27;2.55;;;1.13;;
19985;SDS011;10154;52.474;10.768;2022-09-09T15:39:05;2.47;;;1.25;;
19985;SDS011;10154;52.474;10.768;2022-09-09T15:41:37;2.30;;;1.10;;
19985;SDS011;10154;52.474;10.768;2022-09-09T15:44:05;2.70;;;1.20;;
19985;SDS011;10154;52.474;10.768;2022-09-09T15:46:38;3.45;;;1.27;;
19985;SDS011;10154;52.474;10.768;2022-09-09T15:49:09;5.10;;;1.30;;
19985;SDS011;10154;52.474;10.768;2022-09-09T15:51:51;4.05;;;1.40;;
19985;SDS011;10154;52.474;10.768;2022-09-09T15:54:22;4.05;;;1.33;;
19985;SDS011;10154;52.474;10.768;2022-09-09T15:56:52;2.15;;;1.10;;
19985;SDS011;10154;52.474;10.768;2022-09-09T15:59:27;5.75;;;1.20;;
19985;SDS011;10154;52.474;10.768;2022-09-09T16:01:55;5.25;;;1.30;;
19985;SDS011;10154;52.474;10.768;2022-09-09T16:04:22;3.35;;;1.40;;
19985;SDS011;10154;52.474;10.768;2022-09-09T16:06:53;1.75;;;1.13;;
19985;SDS011;10154;52.474;10.768;2022-09-09T16:09:30;2.55;;;1.40;;
19985;SDS011;10154;52.474;10.768;2022-09-09T16:14:54;4.32;;;1.20;;
19985;SDS011;10154;52.474;10.768;2022-09-09T16:17:22;3.15;;;1.30;;
19985;SDS011;10154;52.474;10.768;2022-09-09T16:20:14;3.53;;;1.20;;
19985;SDS011;10154;52.474;10.768;2022-09-09T16:22:46;3.13;;;1.10;;
19985;SDS011;10154;52.474;10.768;2022-09-09T16:25:13;4.85;;;1.20;;
19985;SDS011;10154;52.474;10.768;2022-09-09T16:27:39;3.58;;;1.10;;
19985;SDS011;10154;52.474;10.768;2022-09-09T16:30:06;2.50;;;1.13;;
19985;SDS011;10154;52.474;10.768;2022-09-09T16:32:35;3.92;;;1.00;;
19985;SDS011;10154;52.474;10.768;2022-09-09T16:35:02;3.35;;;1.33;;
19985;SDS011;10154;52.474;10.768;2022-09-09T16:37:31;2.40;;;1.15;;
19985;SDS011;10154;52.474;10.768;2022-09-09T16:40:01;3.72;;;1.30;;
19985;SDS011;10154;52.474;10.768;2022-09-09T16:42:28;3.70;;;1.20;;
19985;SDS011;10154;52.474;10.768;2022-09-09T16:44:54;4.70;;;1.25;;
19985;SDS011;10154;52.474;10.768;2022-09-09T16:47:20;3.47;;;1.30;;
19985;SDS011;10154;52.474;10.768;2022-09-09T16:49:46;4.25;;;1.40;;
19985;SDS011;10154;52.474;10.768;2022-09-09T16:52:13;5.25;;;1.27;;
19985;SDS011;10154;52.474;10.768;2022-09-09T16:54:40;2.72;;;1.20;;
19985;SDS011;10154;52.474;10.768;2022-09-09T16:57:06;4.40;;;1.13;;
19985;SDS011;10154;52.474;10.768;2022-09-09T16:59:32;6.97;;;1.30;;
19985;SDS011;10154;52.474;10.768;2022-09-09T17:01:58;3.28;;;1.10;;
19985;SDS011;10154;52.474;10.768;2022-09-09T17:04:26;5.95;;;1.20;;
19985;SDS011;10154;52.474;10.768;2022-09-09T17:06:53;7.80;;;1.38;;
19985;SDS011;10154;52.474;10.768;2022-09-09T17:09:21;2.80;;;1.10;;
19985;SDS011;10154;52.474;10.768;2022-09-09T17:11:52;6.10;;;1.40;;
19985;SDS011;10154;52.474;10.768;2022-09-09T17:14:20;3.70;;;1.20;;
19985;SDS011;10154;52.474;10.768;2022-09-09T17:16:47;3.95;;;1.30;;
19985;SDS011;10154;52.474;10.768;2022-09-09T17:19:14;5.32;;;1.10;;
19985;SDS011;10154;52.474;10.768;2022-09-09T17:21:41;3.78;;;1.38;;
19985;SDS011;10154;52.474;10.768;2022-09-09T17:24:07;5.38;;;1.38;;
19985;SDS011;10154;52.474;10.768;2022-09-09T17:38:08;4.53;;;2.00;;
19985;SDS011;10154;52.474;10.768;2022-09-09T17:40:42;3.47;;;2.00;;
19985;SDS011;10154;52.474;10.768;2022-09-09T17:58:45;5.00;;;2.30;;
19985;SDS011;10154;52.474;10.768;2022-09-09T18:01:16;3.37;;;2.03;;
19985;SDS011;10154;52.474;10.768;2022-09-09T18:03:55;4.37;;;2.07;;
19985;SDS011;10154;52.474;10.768;2022-09-09T18:06:48;8.43;;;2.10;;
19985;SDS011;10154;52.474;10.768;2022-09-09T18:11:45;10.13;;;2.00;;
19985;SDS011;10154;52.474;10.768;2022-09-09T18:14:15;3.93;;;1.90;;
19985;SDS011;10154;52.474;10.768;2022-09-09T18:16:44;6.30;;;2.37;;
19985;SDS011;10154;52.474;10.768;2022-09-09T18:19:12;6.27;;;2.03;;
19985;SDS011;10154;52.474;10.768;2022-09-09T18:21:42;6.77;;;2.13;;
19985;SDS011;10154;52.474;10.768;2022-09-09T18:24:09;5.63;;;2.23;;
19985;SDS011;10154;52.474;10.768;2022-09-09T18:26:37;4.03;;;2.10;;